createdAt,value
2018-05-31T00:02:04.783Z,94120.72
2018-05-31T00:04:32.671Z,94125.32
2018-05-31T00:07:01.176Z,94119.00
2018-05-31T00:09:29.014Z,94118.09
2018-05-31T00:11:56.642Z,94111.02
2018-05-31T00:14:24.535Z,94113.35
2018-05-31T00:16:52.212Z,94105.16
2018-05-31T00:19:19.871Z,94110.16
2018-05-31T00:21:47.588Z,94111.39
2018-05-31T00:24:15.505Z,94115.33
2018-05-31T00:26:43.210Z,94116.27
2018-05-31T00:29:11.020Z,94108.89
2018-05-31T00:31:38.673Z,94119.50
2018-05-31T00:34:06.324Z,94118.40
2018-05-31T00:36:34.117Z,94117.42
2018-05-31T00:39:01.980Z,94114.31
2018-05-31T00:41:29.628Z,94110.11
2018-05-31T00:43:57.902Z,94114.39
2018-05-31T00:46:25.711Z,94108.66
2018-05-31T00:48:53.598Z,94113.08
2018-05-31T00:51:21.278Z,94109.59
2018-05-31T00:53:50.391Z,94113.67
2018-05-31T00:56:18.288Z,94112.08
2018-05-31T00:58:45.962Z,94116.23
2018-05-31T01:01:13.869Z,94109.89
2018-05-31T01:03:41.890Z,94114.17
2018-05-31T01:06:10.470Z,94116.56
2018-05-31T01:08:38.095Z,94115.02
2018-05-31T01:11:05.709Z,94119.91
2018-05-31T01:13:33.946Z,94114.24
2018-05-31T01:16:01.598Z,94109.21
2018-05-31T01:18:29.389Z,94108.61
2018-05-31T01:20:57.259Z,94109.75
2018-05-31T01:23:24.923Z,94108.25
2018-05-31T01:25:52.576Z,94106.78
2018-05-31T01:28:20.244Z,94112.39
2018-05-31T01:30:47.869Z,94109.81
2018-05-31T01:33:15.750Z,94108.91
2018-05-31T01:35:43.670Z,94110.99
2018-05-31T01:38:23.091Z,94114.13
2018-05-31T01:40:50.854Z,94107.00
2018-05-31T01:43:18.724Z,94111.84
2018-05-31T01:45:46.472Z,94111.77
2018-05-31T01:48:14.465Z,94107.22
2018-05-31T01:50:42.760Z,94109.80
2018-05-31T01:53:10.519Z,94111.12
2018-05-31T01:55:38.166Z,94117.31
2018-05-31T01:58:05.923Z,94117.63
2018-05-31T02:00:33.577Z,94117.41
2018-05-31T02:03:01.443Z,94119.71
2018-05-31T02:05:29.282Z,94115.33
2018-05-31T02:07:57.192Z,94120.28
2018-05-31T02:10:24.855Z,94111.70
2018-05-31T02:12:52.498Z,94104.98
2018-05-31T02:15:20.404Z,94107.73
2018-05-31T02:17:48.238Z,94101.36
2018-05-31T02:20:16.177Z,94101.06
2018-05-31T02:22:43.946Z,94104.22
2018-05-31T02:25:11.684Z,94104.20
2018-05-31T02:27:39.347Z,94112.27
2018-05-31T02:30:07.172Z,94112.58
2018-05-31T02:32:34.991Z,94117.17
2018-05-31T02:35:02.795Z,94128.91
2018-05-31T02:37:30.444Z,94127.03
2018-05-31T02:39:58.235Z,94127.17
2018-05-31T02:42:25.884Z,94133.97
2018-05-31T02:44:53.766Z,94130.88
2018-05-31T02:47:22.114Z,94136.97
2018-05-31T02:49:50.689Z,94145.58
2018-05-31T02:52:18.395Z,94143.79
2018-05-31T02:54:46.079Z,94157.19
2018-05-31T02:57:14.305Z,94153.95
2018-05-31T02:59:42.320Z,94157.38
2018-05-31T03:02:10.283Z,94160.94
2018-05-31T03:04:37.932Z,94163.98
2018-05-31T03:07:05.786Z,94161.48
2018-05-31T03:09:33.407Z,94165.16
2018-05-31T03:12:01.076Z,94166.87
2018-05-31T03:14:28.692Z,94167.02
2018-05-31T03:16:56.344Z,94167.38
2018-05-31T03:19:24.017Z,94167.25
2018-05-31T03:21:51.748Z,94164.09
2018-05-31T03:24:19.605Z,94167.33
2018-05-31T03:26:47.244Z,94176.12
2018-05-31T03:29:15.076Z,94174.66
2018-05-31T03:31:42.725Z,94174.53
2018-05-31T03:34:10.603Z,94170.95
2018-05-31T03:36:38.216Z,94168.70
2018-05-31T03:39:06.127Z,94175.09
2018-05-31T03:41:33.845Z,94172.38
2018-05-31T03:44:01.485Z,94177.19
2018-05-31T03:46:29.160Z,94173.59
2018-05-31T03:48:57.522Z,94177.13
2018-05-31T03:51:25.248Z,94177.91
2018-05-31T03:53:53.109Z,94170.61
2018-05-31T03:56:20.734Z,94169.61
2018-05-31T03:58:48.348Z,94169.24
2018-05-31T04:01:16.044Z,94180.59
2018-05-31T04:03:43.779Z,94173.02
2018-05-31T04:06:11.719Z,94175.52
2018-05-31T04:08:39.445Z,94177.61
2018-05-31T04:11:07.160Z,94174.11
2018-05-31T04:13:34.780Z,94174.19
2018-05-31T04:16:04.864Z,94173.00
2018-05-31T04:18:32.927Z,94176.80
2018-05-31T04:21:00.793Z,94178.67
2018-05-31T04:23:28.389Z,94175.14
2018-05-31T04:25:56.064Z,94174.19
2018-05-31T04:28:24.496Z,94173.88
2018-05-31T04:30:52.454Z,94172.84
2018-05-31T04:33:20.941Z,94171.25
2018-05-31T04:35:48.915Z,94174.47
2018-05-31T04:38:16.769Z,94168.76
2018-05-31T04:40:44.392Z,94171.95
2018-05-31T04:43:12.812Z,94169.39
2018-05-31T04:45:40.612Z,94171.34
2018-05-31T04:48:08.289Z,94171.08
2018-05-31T04:50:35.996Z,94172.50
2018-05-31T04:53:05.004Z,94171.00
2018-05-31T04:55:32.977Z,94166.66
2018-05-31T04:58:00.771Z,94170.86
2018-05-31T05:00:29.745Z,94171.08
2018-05-31T05:02:57.672Z,94170.45
2018-05-31T05:05:25.669Z,94172.95
2018-05-31T05:07:53.554Z,94170.23
2018-05-31T05:10:21.215Z,94173.03
2018-05-31T05:12:48.975Z,94165.14
2018-05-31T05:15:16.869Z,94167.35
2018-05-31T05:17:44.751Z,94168.63
2018-05-31T05:20:12.763Z,94169.81
2018-05-31T05:22:40.433Z,94168.41
2018-05-31T05:25:08.304Z,94171.09
2018-05-31T05:27:35.970Z,94168.80
2018-05-31T05:30:03.841Z,94168.70
2018-05-31T05:32:32.154Z,94162.95
2018-05-31T05:35:00.773Z,94164.72
2018-05-31T05:37:28.401Z,94166.47
2018-05-31T05:39:56.331Z,94171.75
2018-05-31T05:42:23.981Z,94170.29
2018-05-31T05:44:51.804Z,94172.62
2018-05-31T05:47:19.514Z,94177.83
2018-05-31T05:49:47.202Z,94173.59
2018-05-31T05:52:15.894Z,94173.98
2018-05-31T05:54:44.023Z,94169.02
2018-05-31T05:57:11.739Z,94170.17
2018-05-31T05:59:39.425Z,94171.01
2018-05-31T06:02:07.197Z,94168.00
2018-05-31T06:04:35.787Z,94169.88
2018-05-31T06:07:03.690Z,94171.66
2018-05-31T06:09:31.764Z,94168.80
2018-05-31T06:11:59.404Z,94172.33
2018-05-31T06:14:27.090Z,94168.22
2018-05-31T06:16:55.161Z,94175.89
2018-05-31T06:19:23.747Z,94173.42
2018-05-31T06:21:51.371Z,94171.95
2018-05-31T06:24:19.069Z,94178.20
2018-05-31T06:26:46.836Z,94172.86
2018-05-31T06:29:14.678Z,94163.53
2018-05-31T06:31:42.458Z,94167.00
2018-05-31T06:34:10.230Z,94166.67
2018-05-31T06:36:37.966Z,94168.16
2018-05-31T06:39:05.824Z,94162.70
2018-05-31T06:41:35.277Z,94167.48
2018-05-31T06:44:03.918Z,94164.38
2018-05-31T06:46:31.812Z,94162.29
2018-05-31T06:48:59.481Z,94160.12
2018-05-31T06:51:27.830Z,94158.59
2018-05-31T06:53:55.625Z,94152.26
2018-05-31T06:56:23.904Z,94151.16
2018-05-31T06:58:53.306Z,94151.12
2018-05-31T07:01:20.967Z,94156.03
2018-05-31T07:03:48.983Z,94149.56
2018-05-31T07:06:17.006Z,94146.83
2018-05-31T07:08:44.710Z,94148.13
2018-05-31T07:11:14.041Z,94151.74
2018-05-31T07:13:42.002Z,94145.23
2018-05-31T07:16:10.421Z,94139.44
2018-05-31T07:18:38.043Z,94135.81
2018-05-31T07:21:07.595Z,94130.11
2018-05-31T07:23:35.356Z,94130.13
2018-05-31T07:26:03.763Z,94131.13
2018-05-31T07:28:31.654Z,94126.05
2018-05-31T07:30:59.362Z,94123.98
2018-05-31T07:33:27.033Z,94120.67
2018-05-31T07:35:55.005Z,94126.95
2018-05-31T07:38:23.701Z,94117.68
2018-05-31T07:40:51.425Z,94120.91
2018-05-31T07:43:19.341Z,94115.62
2018-05-31T07:45:47.094Z,94106.69
2018-05-31T07:48:14.893Z,94113.44
2018-05-31T07:50:42.945Z,94107.25
2018-05-31T07:53:10.891Z,94112.85
2018-05-31T07:55:38.984Z,94108.89
2018-05-31T07:58:06.727Z,94109.48
2018-05-31T08:00:34.766Z,94109.02
2018-05-31T08:03:02.643Z,94114.19
2018-05-31T08:05:30.784Z,94115.20
2018-05-31T08:07:59.932Z,94110.64
2018-05-31T08:10:27.630Z,94106.31
2018-05-31T08:12:55.477Z,94101.98
2018-05-31T08:15:23.131Z,94105.21
2018-05-31T08:17:50.909Z,94100.45
2018-05-31T08:20:18.677Z,94100.20
2018-05-31T08:22:46.438Z,94096.77
2018-05-31T08:25:14.151Z,94088.16
2018-05-31T08:27:41.868Z,94096.45
2018-05-31T08:30:09.555Z,94092.61
2018-05-31T08:32:38.052Z,94082.99
2018-05-31T08:35:05.668Z,94083.24
2018-05-31T08:37:33.732Z,94082.07
2018-05-31T08:40:01.449Z,94074.09
2018-05-31T08:42:30.056Z,94082.43
2018-05-31T08:44:57.743Z,94071.63
2018-05-31T08:47:25.453Z,94070.73
2018-05-31T08:49:53.080Z,94069.12
2018-05-31T08:52:20.880Z,94076.75
2018-05-31T08:54:48.506Z,94074.33
2018-05-31T08:57:16.452Z,94069.99
2018-05-31T08:59:45.178Z,94068.25
2018-05-31T09:02:13.256Z,94062.91
2018-05-31T09:04:41.496Z,94062.24
2018-05-31T09:07:09.542Z,94059.66
2018-05-31T09:09:37.182Z,94061.98
2018-05-31T09:12:04.901Z,94058.12
2018-05-31T09:14:32.569Z,94049.93
2018-05-31T09:17:00.329Z,94050.94
2018-05-31T09:19:27.990Z,94047.16
2018-05-31T09:21:55.686Z,94034.83
2018-05-31T09:24:23.546Z,94040.85
2018-05-31T09:26:51.204Z,94034.08
2018-05-31T09:29:18.882Z,94035.61
2018-05-31T09:31:46.523Z,94029.67
2018-05-31T09:34:14.156Z,94037.20
2018-05-31T09:36:41.875Z,94029.55
2018-05-31T09:39:09.492Z,94026.01
2018-05-31T09:41:37.234Z,94015.09
2018-05-31T09:44:04.903Z,94015.42
2018-05-31T09:46:32.621Z,94005.11
2018-05-31T09:49:00.263Z,94003.05
2018-05-31T09:51:28.025Z,93999.58
2018-05-31T09:53:55.715Z,93998.23
2018-05-31T09:56:23.373Z,93997.63
2018-05-31T09:58:51.065Z,93988.50
2018-05-31T10:01:18.701Z,93983.68
2018-05-31T10:03:46.449Z,93986.79
2018-05-31T10:06:14.167Z,93981.06
2018-05-31T10:08:41.802Z,93983.60
2018-05-31T10:11:09.540Z,93974.50
2018-05-31T10:13:37.222Z,93974.65
2018-05-31T10:16:04.890Z,93965.70
2018-05-31T10:18:32.587Z,93962.20
2018-05-31T10:21:00.214Z,93970.72
2018-05-31T10:23:27.958Z,93964.69
2018-05-31T10:25:55.571Z,93956.30
2018-05-31T10:28:23.284Z,93960.94
2018-05-31T10:30:50.936Z,93960.30
2018-05-31T10:33:18.624Z,93962.01
2018-05-31T10:35:46.369Z,93959.33
2018-05-31T10:38:13.980Z,93953.81
2018-05-31T10:40:41.699Z,93954.80
2018-05-31T10:43:09.343Z,93951.30
2018-05-31T10:45:37.043Z,93954.27
2018-05-31T10:48:04.678Z,93950.94
2018-05-31T10:50:32.375Z,93950.70
2018-05-31T10:53:00.049Z,93947.24
2018-05-31T10:55:27.738Z,93943.47
2018-05-31T10:57:55.370Z,93946.20
2018-05-31T11:00:23.065Z,93940.66
2018-05-31T11:02:50.727Z,93930.08
2018-05-31T11:05:18.380Z,93938.38
2018-05-31T11:07:46.073Z,93934.26
2018-05-31T11:10:13.723Z,93936.95
2018-05-31T11:12:41.659Z,93939.28
2018-05-31T11:15:09.361Z,93939.55
2018-05-31T11:17:37.010Z,93941.24
2018-05-31T11:20:04.808Z,93939.34
2018-05-31T11:22:32.441Z,93944.06
2018-05-31T11:25:00.101Z,93943.44
2018-05-31T11:27:28.553Z,93941.91
2018-05-31T11:29:56.160Z,93950.91
2018-05-31T11:32:23.837Z,93952.52
2018-05-31T11:34:51.510Z,93951.92
2018-05-31T11:37:19.168Z,93951.98
2018-05-31T11:39:46.997Z,93953.91
2018-05-31T11:42:14.674Z,93953.59
2018-05-31T11:44:42.334Z,93947.16
2018-05-31T11:47:10.040Z,93943.38
2018-05-31T11:49:37.701Z,93942.09
2018-05-31T11:52:05.374Z,93948.77
2018-05-31T11:54:33.004Z,93954.45
2018-05-31T11:57:00.683Z,93948.66
2018-05-31T11:59:28.458Z,93949.24
2018-05-31T12:01:56.163Z,93956.44
2018-05-31T12:04:23.965Z,93969.43
2018-05-31T12:06:52.240Z,93986.25
2018-05-31T12:09:19.947Z,93994.89
2018-05-31T12:11:47.577Z,94001.02
2018-05-31T12:14:15.259Z,94009.50
2018-05-31T12:16:42.926Z,94015.09
2018-05-31T12:19:11.277Z,94016.97
2018-05-31T12:21:39.055Z,94021.45
2018-05-31T12:24:06.985Z,94029.12
2018-05-31T12:26:34.643Z,94029.66
2018-05-31T12:29:02.431Z,94039.20
2018-05-31T12:31:30.073Z,94040.30
2018-05-31T12:33:57.790Z,94050.91
2018-05-31T12:36:25.428Z,94071.58
2018-05-31T12:38:53.130Z,94085.24
2018-05-31T12:41:20.798Z,94100.58
2018-05-31T12:43:48.533Z,94105.42
2018-05-31T12:46:16.185Z,94106.70
2018-05-31T12:48:43.929Z,94121.53
2018-05-31T12:51:11.700Z,94129.32
2018-05-31T12:53:39.476Z,94133.13
2018-05-31T12:56:07.260Z,94131.80
2018-05-31T12:58:34.949Z,94120.94
2018-05-31T13:01:02.703Z,94119.61
2018-05-31T13:03:30.524Z,94109.47
2018-05-31T13:05:58.282Z,94105.03
2018-05-31T13:08:25.954Z,94103.20
2018-05-31T13:10:53.812Z,94106.67
2018-05-31T13:13:21.546Z,94108.45
2018-05-31T13:15:49.232Z,94102.30
2018-05-31T13:18:17.017Z,94099.68
2018-05-31T13:20:44.754Z,94107.66
2018-05-31T13:23:13.613Z,94107.77
2018-05-31T13:25:42.481Z,94109.44
2018-05-31T13:28:13.127Z,94110.83
2018-05-31T13:30:40.942Z,94123.20
2018-05-31T13:33:08.708Z,94122.39
2018-05-31T13:35:36.447Z,94124.73
2018-05-31T13:38:04.667Z,94133.66
2018-05-31T13:40:32.430Z,94133.45
2018-05-31T13:43:00.404Z,94134.74
2018-05-31T13:45:28.139Z,94134.63
2018-05-31T13:47:56.698Z,94141.95
2018-05-31T13:50:24.451Z,94136.14
2018-05-31T13:52:52.157Z,94132.10
2018-05-31T13:55:20.956Z,94131.66
2018-05-31T13:57:48.596Z,94134.72
2018-05-31T14:00:17.577Z,94127.15
2018-05-31T14:02:45.399Z,94120.25
2018-05-31T14:05:14.074Z,94115.72
2018-05-31T14:07:42.834Z,94115.83
2018-05-31T14:10:10.558Z,94124.23
2018-05-31T14:12:38.212Z,94111.57
2018-05-31T14:15:06.834Z,94110.88
2018-05-31T14:17:37.229Z,94107.74
2018-05-31T14:20:05.104Z,94102.09
2018-05-31T14:22:32.745Z,94103.20
2018-05-31T14:25:00.518Z,94110.75
2018-05-31T14:27:28.264Z,94117.69
2018-05-31T14:29:56.282Z,94118.84
2018-05-31T14:32:24.217Z,94123.76
2018-05-31T14:34:51.923Z,94120.59
2018-05-31T14:37:19.665Z,94122.55
2018-05-31T14:39:47.346Z,94120.16
2018-05-31T14:42:15.034Z,94123.77
2018-05-31T14:44:42.765Z,94131.16
2018-05-31T14:47:10.495Z,94134.44
2018-05-31T14:49:38.218Z,94147.50
2018-05-31T14:52:06.002Z,94146.54
2018-05-31T14:54:33.682Z,94149.73
2018-05-31T14:57:01.380Z,94157.95
2018-05-31T14:59:29.052Z,94160.84
2018-05-31T15:01:56.787Z,94159.34
2018-05-31T15:04:24.410Z,94159.00
2018-05-31T15:06:52.222Z,94156.22
2018-05-31T15:09:19.959Z,94156.37
2018-05-31T15:11:47.660Z,94167.70
2018-05-31T15:14:15.357Z,94167.09
2018-05-31T15:16:43.043Z,94171.23
2018-05-31T15:19:10.783Z,94167.74
2018-05-31T15:21:38.516Z,94162.58
2018-05-31T15:24:06.248Z,94157.73
2018-05-31T15:26:33.995Z,94152.23
2018-05-31T15:29:01.672Z,94151.72
2018-05-31T15:31:29.359Z,94149.66
2018-05-31T15:33:57.049Z,94147.09
2018-05-31T15:36:25.609Z,94152.42
2018-05-31T15:38:53.275Z,94149.45
2018-05-31T15:41:21.018Z,94141.70
2018-05-31T15:43:48.687Z,94141.38
2018-05-31T15:46:16.391Z,94138.04
2018-05-31T15:48:44.124Z,94131.27
2018-05-31T15:51:11.740Z,94116.92
2018-05-31T15:53:39.413Z,94116.42
2018-05-31T15:56:07.058Z,94112.79
2018-05-31T15:58:34.712Z,94111.41
2018-05-31T16:01:02.420Z,94108.27
2018-05-31T16:03:30.040Z,94112.20
2018-05-31T16:05:57.715Z,94111.80
2018-05-31T16:08:25.321Z,94110.59
2018-05-31T16:10:52.937Z,94110.41
2018-05-31T16:13:20.609Z,94113.94
2018-05-31T16:15:48.265Z,94114.12
2018-05-31T16:18:15.890Z,94122.11
2018-05-31T16:20:43.535Z,94118.80
2018-05-31T16:23:11.593Z,94121.29
2018-05-31T16:25:39.236Z,94129.33
2018-05-31T16:28:06.894Z,94130.55
2018-05-31T16:30:34.586Z,94136.02
2018-05-31T16:33:02.308Z,94136.56
2018-05-31T16:35:29.967Z,94143.34
2018-05-31T16:37:57.605Z,94145.06
2018-05-31T16:40:25.288Z,94145.70
2018-05-31T16:42:52.919Z,94149.09
2018-05-31T16:45:20.697Z,94148.92
2018-05-31T16:47:48.325Z,94145.39
2018-05-31T16:50:16.026Z,94140.81
2018-05-31T16:52:44.683Z,94138.02
2018-05-31T16:55:12.414Z,94143.84
2018-05-31T16:57:40.028Z,94142.72
2018-05-31T17:00:07.665Z,94138.41
2018-05-31T17:02:35.344Z,94136.81
2018-05-31T17:05:03.112Z,94132.55
2018-05-31T17:07:30.803Z,94138.25
2018-05-31T17:09:58.433Z,94140.02
2018-05-31T17:12:26.255Z,94138.14
2018-05-31T17:14:53.944Z,94150.27
2018-05-31T17:17:21.571Z,94156.86
2018-05-31T17:19:49.237Z,94161.05
2018-05-31T17:22:16.941Z,94151.23
2018-05-31T17:24:44.557Z,94152.66
2018-05-31T17:27:12.225Z,94152.88
2018-05-31T17:29:39.829Z,94143.45
2018-05-31T17:32:07.532Z,94150.89
2018-05-31T17:34:35.183Z,94152.60
2018-05-31T17:37:02.816Z,94144.16
2018-05-31T17:39:30.568Z,94139.75
2018-05-31T17:41:58.255Z,94145.72
2018-05-31T17:44:25.959Z,94134.09
2018-05-31T17:46:53.584Z,94141.94
2018-05-31T17:49:21.494Z,94148.59
2018-05-31T17:51:49.190Z,94144.91
2018-05-31T17:54:16.882Z,94144.38
2018-05-31T17:56:44.585Z,94144.03
2018-05-31T17:59:12.293Z,94141.28
2018-05-31T18:01:40.058Z,94147.31
2018-05-31T18:04:07.787Z,94140.77
2018-05-31T18:06:35.500Z,94136.53
2018-05-31T18:09:03.302Z,94127.91
2018-05-31T18:11:31.060Z,94132.19
2018-05-31T18:13:59.317Z,94124.69
2018-05-31T18:16:27.156Z,94124.39
2018-05-31T18:18:54.865Z,94117.05
2018-05-31T18:21:22.512Z,94121.95
2018-05-31T18:23:50.274Z,94122.14
2018-05-31T18:26:18.137Z,94115.95
2018-05-31T18:28:45.775Z,94110.14
2018-05-31T18:31:13.810Z,94112.38
2018-05-31T18:33:41.495Z,94108.66
2018-05-31T18:36:10.485Z,94114.09
2018-05-31T18:38:38.480Z,94109.37
2018-05-31T18:41:06.256Z,94108.10
2018-05-31T18:43:37.502Z,94107.58
2018-05-31T18:46:05.254Z,94113.38
2018-05-31T18:48:33.476Z,94111.03
2018-05-31T18:51:01.757Z,94113.25
2018-05-31T18:53:29.410Z,94119.30
2018-05-31T18:55:57.705Z,94121.77
2018-05-31T18:58:26.580Z,94127.92
2018-05-31T19:00:54.401Z,94130.36
2018-05-31T19:03:22.155Z,94133.38
2018-05-31T19:05:49.868Z,94130.88
2018-05-31T19:08:17.564Z,94134.53
2018-05-31T19:10:45.260Z,94141.00
2018-05-31T19:13:18.424Z,94136.53
2018-05-31T19:15:46.320Z,94131.69
2018-05-31T19:18:19.411Z,94137.31
2018-05-31T19:20:47.140Z,94144.42
2018-05-31T19:23:14.922Z,94143.33
2018-05-31T19:25:42.714Z,94143.26
2018-05-31T19:28:10.343Z,94149.28
2018-05-31T19:30:43.543Z,94159.17
2018-05-31T19:33:11.400Z,94159.56
2018-05-31T19:35:44.716Z,94159.90
2018-05-31T19:38:12.410Z,94163.45
2018-05-31T19:40:40.284Z,94167.00
2018-05-31T19:43:13.721Z,94170.10
2018-05-31T19:45:41.382Z,94168.07
2018-05-31T19:48:10.126Z,94166.91
2018-05-31T19:50:37.816Z,94172.05
2018-05-31T19:53:11.158Z,94172.64
2018-05-31T19:55:38.843Z,94170.27
2018-05-31T19:58:12.748Z,94167.77
2018-05-31T20:00:46.112Z,94174.23
2018-05-31T20:03:19.370Z,94174.52
2018-05-31T20:05:47.065Z,94177.27
2018-05-31T20:08:14.723Z,94184.69
2018-05-31T20:10:42.608Z,94178.63
2018-05-31T20:13:10.580Z,94172.05
2018-05-31T20:15:38.311Z,94176.75
2018-05-31T20:18:06.741Z,94181.12
2018-05-31T20:20:34.471Z,94189.64
2018-05-31T20:23:02.970Z,94185.83
2018-05-31T20:25:31.486Z,94179.95
2018-05-31T20:27:59.496Z,94191.39
2018-05-31T20:30:27.510Z,94198.92
2018-05-31T20:32:55.461Z,94206.68
2018-05-31T20:35:23.551Z,94207.34
2018-05-31T20:37:51.567Z,94208.76
2018-05-31T20:40:21.783Z,94206.66
2018-05-31T20:42:51.857Z,94203.26
2018-05-31T20:45:19.767Z,94209.28
2018-05-31T20:47:47.886Z,94203.49
2018-05-31T20:50:16.159Z,94208.39
2018-05-31T20:52:44.645Z,94207.86
2018-05-31T20:55:13.039Z,94206.02
2018-05-31T20:57:40.657Z,94209.17
2018-05-31T21:00:08.621Z,94208.14
2018-05-31T21:02:37.135Z,94202.63
2018-05-31T21:05:05.509Z,94207.59
2018-05-31T21:07:33.377Z,94213.25
2018-05-31T21:10:01.248Z,94209.56
2018-05-31T21:12:28.858Z,94216.95
2018-05-31T21:14:57.391Z,94214.72
2018-05-31T21:17:25.252Z,94214.72
2018-05-31T21:19:53.132Z,94209.33
2018-05-31T21:22:21.709Z,94219.58
2018-05-31T21:24:49.576Z,94213.27
2018-05-31T21:27:18.107Z,94210.38
2018-05-31T21:29:45.753Z,94209.33
2018-05-31T21:32:13.422Z,94212.21
2018-05-31T21:34:41.875Z,94210.23
2018-05-31T21:37:10.308Z,94204.98
2018-05-31T21:39:38.208Z,94202.08
2018-05-31T21:42:05.871Z,94206.55
2018-05-31T21:44:33.542Z,94204.58
2018-05-31T21:47:01.300Z,94201.55
2018-05-31T21:49:29.077Z,94210.25
2018-05-31T21:51:56.745Z,94205.62
2018-05-31T21:54:24.406Z,94198.13
2018-05-31T21:56:52.165Z,94205.64
2018-05-31T21:59:19.847Z,94203.54
2018-05-31T22:01:47.603Z,94205.09
2018-05-31T22:04:15.473Z,94199.20
2018-05-31T22:06:43.222Z,94202.20
2018-05-31T22:09:10.846Z,94197.88
2018-05-31T22:11:38.586Z,94201.64
2018-05-31T22:14:06.185Z,94206.66
2018-05-31T22:16:33.911Z,94201.95
2018-05-31T22:19:02.281Z,94204.81
2018-05-31T22:21:29.900Z,94202.09
2018-05-31T22:23:57.660Z,94204.98
2018-05-31T22:26:25.270Z,94210.48
2018-05-31T22:28:53.207Z,94209.98
2018-05-31T22:31:20.811Z,94205.23
2018-05-31T22:33:48.481Z,94205.25
2018-05-31T22:36:16.355Z,94203.80
2018-05-31T22:38:44.036Z,94202.34
2018-05-31T22:41:11.959Z,94203.88
2018-05-31T22:43:39.802Z,94200.45
2018-05-31T22:46:07.535Z,94203.48
2018-05-31T22:48:35.238Z,94205.72
2018-05-31T22:51:02.870Z,94194.17
2018-05-31T22:53:30.471Z,94203.59
2018-05-31T22:55:58.135Z,94194.27
2018-05-31T22:58:26.357Z,94193.87
2018-05-31T23:00:54.677Z,94192.05
2018-05-31T23:03:22.690Z,94192.97
2018-05-31T23:05:50.479Z,94195.86
2018-05-31T23:08:18.162Z,94192.30
2018-05-31T23:10:45.842Z,94193.36
2018-05-31T23:13:13.443Z,94181.66
2018-05-31T23:15:41.133Z,94183.64
2018-05-31T23:18:08.840Z,94184.01
2018-05-31T23:20:37.417Z,94186.90
2018-05-31T23:23:05.075Z,94187.81
2018-05-31T23:25:34.698Z,94185.32
2018-05-31T23:28:02.551Z,94186.77
2018-05-31T23:30:30.192Z,94184.91
2018-05-31T23:32:58.418Z,94185.26
2018-05-31T23:35:27.005Z,94182.76
2018-05-31T23:37:54.675Z,94184.87
2018-05-31T23:40:22.998Z,94178.84
2018-05-31T23:42:50.841Z,94178.04
2018-05-31T23:45:18.524Z,94176.97
2018-05-31T23:47:47.007Z,94184.42
2018-05-31T23:50:14.595Z,94178.13
2018-05-31T23:52:42.269Z,94175.11
2018-05-31T23:55:09.921Z,94177.59
2018-05-31T23:57:39.156Z,94182.59
